sensor_id;sensor_type;location;lat;lon;timestamp;P1;durP1;ratioP1;P2;durP2;ratioP2
24407;SDS011;12542;50.924;4.516;2022-11-22T00:01:05;17.83;;;2.45;;
24407;SDS011;12542;50.924;4.516;2022-11-22T00:03:33;18.02;;;3.65;;
24407;SDS011;12542;50.924;4.516;2022-11-22T00:05:59;18.30;;;2.95;;
24407;SDS011;12542;50.924;4.516;2022-11-22T00:08:25;22.38;;;3.17;;
24407;SDS011;12542;50.924;4.516;2022-11-22T00:10:50;18.00;;;2.47;;
24407;SDS011;12542;50.924;4.516;2022-11-22T00:13:16;16.63;;;2.70;;
24407;SDS011;12542;50.924;4.516;2022-11-22T00:15:43;15.15;;;2.58;;
24407;SDS011;12542;50.924;4.516;2022-11-22T00:18:10;14.88;;;1.98;;
24407;SDS011;12542;50.924;4.516;2022-11-22T00:20:35;10.75;;;2.38;;
24407;SDS011;12542;50.924;4.516;2022-11-22T00:23:01;21.35;;;3.42;;
24407;SDS011;12542;50.924;4.516;2022-11-22T00:25:28;12.68;;;2.65;;
24407;SDS011;12542;50.924;4.516;2022-11-22T00:27:54;21.38;;;3.90;;
24407;SDS011;12542;50.924;4.516;2022-11-22T00:30:22;16.08;;;2.70;;
24407;SDS011;12542;50.924;4.516;2022-11-22T00:32:50;12.48;;;2.15;;
24407;SDS011;12542;50.924;4.516;2022-11-22T00:35:15;15.98;;;2.13;;
24407;SDS011;12542;50.924;4.516;2022-11-22T00:37:41;17.77;;;2.50;;
24407;SDS011;12542;50.924;4.516;2022-11-22T00:40:08;15.35;;;2.30;;
24407;SDS011;12542;50.924;4.516;2022-11-22T00:42:34;17.88;;;3.05;;
24407;SDS011;12542;50.924;4.516;2022-11-22T00:45:00;14.73;;;2.55;;
24407;SDS011;12542;50.924;4.516;2022-11-22T00:47:26;9.68;;;2.38;;
24407;SDS011;12542;50.924;4.516;2022-11-22T00:49:52;16.83;;;3.10;;
24407;SDS011;12542;50.924;4.516;2022-11-22T00:52:17;14.85;;;2.80;;
24407;SDS011;12542;50.924;4.516;2022-11-22T00:54:43;14.50;;;2.42;;
24407;SDS011;12542;50.924;4.516;2022-11-22T00:57:09;16.63;;;2.40;;
24407;SDS011;12542;50.924;4.516;2022-11-22T00:59:35;12.95;;;2.33;;
24407;SDS011;12542;50.924;4.516;2022-11-22T01:02:01;12.55;;;2.15;;
24407;SDS011;12542;50.924;4.516;2022-11-22T01:04:26;12.77;;;2.38;;
24407;SDS011;12542;50.924;4.516;2022-11-22T01:06:52;16.15;;;2.20;;
24407;SDS011;12542;50.924;4.516;2022-11-22T01:09:19;11.95;;;2.53;;
24407;SDS011;12542;50.924;4.516;2022-11-22T01:11:46;11.57;;;2.42;;
24407;SDS011;12542;50.924;4.516;2022-11-22T01:14:13;14.85;;;3.15;;
24407;SDS011;12542;50.924;4.516;2022-11-22T01:16:39;15.63;;;2.42;;
24407;SDS011;12542;50.924;4.516;2022-11-22T01:19:06;15.43;;;2.53;;
24407;SDS011;12542;50.924;4.516;2022-11-22T01:21:32;12.85;;;2.30;;
24407;SDS011;12542;50.924;4.516;2022-11-22T01:23:58;12.80;;;2.38;;
24407;SDS011;12542;50.924;4.516;2022-11-22T01:26:24;18.42;;;2.47;;
24407;SDS011;12542;50.924;4.516;2022-11-22T01:28:50;9.23;;;2.17;;
24407;SDS011;12542;50.924;4.516;2022-11-22T01:31:15;13.10;;;2.15;;
24407;SDS011;12542;50.924;4.516;2022-11-22T01:33:41;16.83;;;2.60;;
24407;SDS011;12542;50.924;4.516;2022-11-22T01:36:07;11.57;;;2.10;;
24407;SDS011;12542;50.924;4.516;2022-11-22T01:38:33;10.98;;;2.25;;
24407;SDS011;12542;50.924;4.516;2022-11-22T01:40:58;10.40;;;1.92;;
24407;SDS011;12542;50.924;4.516;2022-11-22T01:43:25;14.55;;;2.10;;
24407;SDS011;12542;50.924;4.516;2022-11-22T01:45:54;16.67;;;2.33;;
24407;SDS011;12542;50.924;4.516;2022-11-22T01:50:52;15.23;;;3.15;;
24407;SDS011;12542;50.924;4.516;2022-11-22T01:53:27;12.25;;;1.90;;
24407;SDS011;12542;50.924;4.516;2022-11-22T01:55:56;14.60;;;2.30;;
24407;SDS011;12542;50.924;4.516;2022-11-22T01:58:24;15.43;;;2.78;;
24407;SDS011;12542;50.924;4.516;2022-11-22T02:00:53;11.88;;;2.08;;
24407;SDS011;12542;50.924;4.516;2022-11-22T02:03:20;14.63;;;2.60;;
24407;SDS011;12542;50.924;4.516;2022-11-22T02:05:47;15.93;;;2.20;;
24407;SDS011;12542;50.924;4.516;2022-11-22T02:09:00;11.88;;;2.08;;
24407;SDS011;12542;50.924;4.516;2022-11-22T02:11:03;9.40;;;2.00;;
24407;SDS011;12542;50.924;4.516;2022-11-22T02:13:31;8.30;;;1.50;;
24407;SDS011;12542;50.924;4.516;2022-11-22T02:16:00;10.27;;;2.08;;
24407;SDS011;12542;50.924;4.516;2022-11-22T02:18:27;13.32;;;2.05;;
24407;SDS011;12542;50.924;4.516;2022-11-22T02:20:53;13.95;;;3.20;;
24407;SDS011;12542;50.924;4.516;2022-11-22T02:26:01;15.73;;;1.85;;
24407;SDS011;12542;50.924;4.516;2022-11-22T02:28:28;12.60;;;1.95;;
24407;SDS011;12542;50.924;4.516;2022-11-22T02:30:59;11.73;;;1.55;;
24407;SDS011;12542;50.924;4.516;2022-11-22T02:33:24;8.30;;;1.48;;
24407;SDS011;12542;50.924;4.516;2022-11-22T02:35:50;10.40;;;2.20;;
24407;SDS011;12542;50.924;4.516;2022-11-22T02:38:18;15.18;;;2.17;;
24407;SDS011;12542;50.924;4.516;2022-11-22T02:40:49;9.98;;;1.50;;
24407;SDS011;12542;50.924;4.516;2022-11-22T02:43:37;11.18;;;1.92;;
24407;SDS011;12542;50.924;4.516;2022-11-22T02:46:06;12.98;;;2.03;;
24407;SDS011;12542;50.924;4.516;2022-11-22T02:48:37;13.50;;;2.22;;
24407;SDS011;12542;50.924;4.516;2022-11-22T02:53:35;8.30;;;1.80;;
24407;SDS011;12542;50.924;4.516;2022-11-22T02:56:01;7.35;;;2.05;;
24407;SDS011;12542;50.924;4.516;2022-11-22T02:58:26;11.00;;;1.90;;
24407;SDS011;12542;50.924;4.516;2022-11-22T03:00:53;7.97;;;1.60;;
24407;SDS011;12542;50.924;4.516;2022-11-22T03:03:19;11.38;;;2.13;;
24407;SDS011;12542;50.924;4.516;2022-11-22T03:05:45;14.50;;;1.83;;
24407;SDS011;12542;50.924;4.516;2022-11-22T03:08:10;9.93;;;1.80;;
24407;SDS011;12542;50.924;4.516;2022-11-22T03:10:36;13.10;;;1.67;;
24407;SDS011;12542;50.924;4.516;2022-11-22T03:13:02;13.60;;;1.52;;
24407;SDS011;12542;50.924;4.516;2022-11-22T03:15:28;7.95;;;1.70;;
24407;SDS011;12542;50.924;4.516;2022-11-22T03:17:57;10.18;;;2.22;;
24407;SDS011;12542;50.924;4.516;2022-11-22T03:20:25;8.07;;;1.75;;
24407;SDS011;12542;50.924;4.516;2022-11-22T03:22:52;10.90;;;1.45;;
24407;SDS011;12542;50.924;4.516;2022-11-22T03:25:18;10.27;;;2.00;;
24407;SDS011;12542;50.924;4.516;2022-11-22T03:27:44;11.07;;;1.95;;
24407;SDS011;12542;50.924;4.516;2022-11-22T03:30:10;5.53;;;1.42;;
24407;SDS011;12542;50.924;4.516;2022-11-22T03:32:36;9.27;;;1.45;;
24407;SDS011;12542;50.924;4.516;2022-11-22T03:35:01;14.98;;;2.25;;
24407;SDS011;12542;50.924;4.516;2022-11-22T03:37:28;8.80;;;1.48;;
24407;SDS011;12542;50.924;4.516;2022-11-22T03:39:54;6.80;;;1.40;;
24407;SDS011;12542;50.924;4.516;2022-11-22T03:42:20;8.07;;;1.58;;
24407;SDS011;12542;50.924;4.516;2022-11-22T03:44:46;6.45;;;1.92;;
24407;SDS011;12542;50.924;4.516;2022-11-22T03:47:12;12.90;;;1.80;;
24407;SDS011;12542;50.924;4.516;2022-11-22T03:49:38;6.75;;;1.20;;
24407;SDS011;12542;50.924;4.516;2022-11-22T03:52:03;14.60;;;1.80;;
24407;SDS011;12542;50.924;4.516;2022-11-22T03:54:29;11.07;;;2.08;;
24407;SDS011;12542;50.924;4.516;2022-11-22T03:56:54;7.43;;;1.65;;
24407;SDS011;12542;50.924;4.516;2022-11-22T03:59:20;12.45;;;2.13;;
24407;SDS011;12542;50.924;4.516;2022-11-22T04:01:46;13.02;;;2.00;;
24407;SDS011;12542;50.924;4.516;2022-11-22T04:04:12;12.93;;;1.60;;
24407;SDS011;12542;50.924;4.516;2022-11-22T04:06:38;8.90;;;1.48;;
24407;SDS011;12542;50.924;4.516;2022-11-22T04:09:06;10.13;;;2.00;;
24407;SDS011;12542;50.924;4.516;2022-11-22T04:11:31;11.60;;;1.52;;
24407;SDS011;12542;50.924;4.516;2022-11-22T04:13:57;16.38;;;2.08;;
24407;SDS011;12542;50.924;4.516;2022-11-22T04:16:41;10.18;;;1.88;;
24407;SDS011;12542;50.924;4.516;2022-11-22T04:19:07;16.08;;;2.00;;
24407;SDS011;12542;50.924;4.516;2022-11-22T04:21:33;9.90;;;1.92;;
24407;SDS011;12542;50.924;4.516;2022-11-22T04:24:00;4.45;;;1.40;;
24407;SDS011;12542;50.924;4.516;2022-11-22T04:26:49;8.13;;;1.60;;
24407;SDS011;12542;50.924;4.516;2022-11-22T04:29:16;9.52;;;1.55;;
24407;SDS011;12542;50.924;4.516;2022-11-22T04:31:44;7.50;;;1.45;;
24407;SDS011;12542;50.924;4.516;2022-11-22T04:34:29;8.60;;;2.40;;
24407;SDS011;12542;50.924;4.516;2022-11-22T04:36:55;7.93;;;1.85;;
24407;SDS011;12542;50.924;4.516;2022-11-22T04:39:20;13.80;;;1.73;;
24407;SDS011;12542;50.924;4.516;2022-11-22T04:41:50;11.68;;;1.98;;
24407;SDS011;12542;50.924;4.516;2022-11-22T04:44:38;7.25;;;1.95;;
24407;SDS011;12542;50.924;4.516;2022-11-22T04:47:08;7.95;;;1.92;;
24407;SDS011;12542;50.924;4.516;2022-11-22T04:49:35;6.90;;;1.63;;
24407;SDS011;12542;50.924;4.516;2022-11-22T04:52:01;10.35;;;1.92;;
24407;SDS011;12542;50.924;4.516;2022-11-22T04:54:45;19.33;;;2.38;;
24407;SDS011;12542;50.924;4.516;2022-11-22T04:57:11;12.45;;;3.63;;
24407;SDS011;12542;50.924;4.516;2022-11-22T04:59:40;10.07;;;1.88;;
24407;SDS011;12542;50.924;4.516;2022-11-22T05:02:05;7.90;;;1.38;;
24407;SDS011;12542;50.924;4.516;2022-11-22T05:04:31;9.52;;;2.97;;
24407;SDS011;12542;50.924;4.516;2022-11-22T05:06:57;10.82;;;1.70;;
24407;SDS011;12542;50.924;4.516;2022-11-22T05:09:23;6.22;;;1.45;;
24407;SDS011;12542;50.924;4.516;2022-11-22T05:11:49;6.75;;;1.52;;
24407;SDS011;12542;50.924;4.516;2022-11-22T05:14:15;10.27;;;2.13;;
24407;SDS011;12542;50.924;4.516;2022-11-22T05:16:41;10.48;;;1.40;;
24407;SDS011;12542;50.924;4.516;2022-11-22T05:19:07;7.13;;;1.67;;
24407;SDS011;12542;50.924;4.516;2022-11-22T05:21:33;7.32;;;2.40;;
24407;SDS011;12542;50.924;4.516;2022-11-22T05:24:02;12.65;;;2.30;;
24407;SDS011;12542;50.924;4.516;2022-11-22T05:26:29;4.65;;;1.25;;
24407;SDS011;12542;50.924;4.516;2022-11-22T05:28:57;6.55;;;1.98;;
24407;SDS011;12542;50.924;4.516;2022-11-22T05:31:31;13.15;;;1.80;;
24407;SDS011;12542;50.924;4.516;2022-11-22T05:33:57;8.57;;;1.80;;
24407;SDS011;12542;50.924;4.516;2022-11-22T05:36:24;8.85;;;1.85;;
24407;SDS011;12542;50.924;4.516;2022-11-22T05:38:50;12.45;;;2.15;;
24407;SDS011;12542;50.924;4.516;2022-11-22T05:41:17;6.20;;;1.42;;
24407;SDS011;12542;50.924;4.516;2022-11-22T05:43:43;10.82;;;2.05;;
24407;SDS011;12542;50.924;4.516;2022-11-22T05:46:17;9.57;;;2.13;;
24407;SDS011;12542;50.924;4.516;2022-11-22T05:48:45;10.70;;;2.55;;
24407;SDS011;12542;50.924;4.516;2022-11-22T05:51:15;10.38;;;2.47;;
24407;SDS011;12542;50.924;4.516;2022-11-22T05:53:43;9.60;;;2.33;;
24407;SDS011;12542;50.924;4.516;2022-11-22T05:56:14;5.75;;;2.00;;
24407;SDS011;12542;50.924;4.516;2022-11-22T05:58:45;6.88;;;2.28;;
24407;SDS011;12542;50.924;4.516;2022-11-22T06:01:16;12.05;;;2.03;;
24407;SDS011;12542;50.924;4.516;2022-11-22T06:03:43;9.27;;;3.40;;
24407;SDS011;12542;50.924;4.516;2022-11-22T06:06:09;12.60;;;1.98;;
24407;SDS011;12542;50.924;4.516;2022-11-22T06:08:35;6.82;;;1.80;;
24407;SDS011;12542;50.924;4.516;2022-11-22T06:11:09;9.90;;;2.40;;
24407;SDS011;12542;50.924;4.516;2022-11-22T06:13:40;3.85;;;1.50;;
24407;SDS011;12542;50.924;4.516;2022-11-22T06:16:13;10.77;;;2.00;;
24407;SDS011;12542;50.924;4.516;2022-11-22T06:18:46;8.32;;;2.67;;
24407;SDS011;12542;50.924;4.516;2022-11-22T06:21:13;10.07;;;1.77;;
24407;SDS011;12542;50.924;4.516;2022-11-22T06:26:17;6.25;;;1.58;;
24407;SDS011;12542;50.924;4.516;2022-11-22T06:28:44;8.38;;;2.10;;
24407;SDS011;12542;50.924;4.516;2022-11-22T06:31:16;10.55;;;2.17;;
24407;SDS011;12542;50.924;4.516;2022-11-22T06:33:43;11.15;;;2.22;;
24407;SDS011;12542;50.924;4.516;2022-11-22T06:36:11;5.70;;;1.88;;
24407;SDS011;12542;50.924;4.516;2022-11-22T06:41:11;6.63;;;2.00;;
24407;SDS011;12542;50.924;4.516;2022-11-22T06:43:39;10.85;;;1.95;;
24407;SDS011;12542;50.924;4.516;2022-11-22T06:46:06;7.82;;;2.28;;
24407;SDS011;12542;50.924;4.516;2022-11-22T06:48:34;11.23;;;2.10;;
24407;SDS011;12542;50.924;4.516;2022-11-22T06:51:02;11.85;;;1.85;;
24407;SDS011;12542;50.924;4.516;2022-11-22T06:53:33;6.07;;;2.00;;
24407;SDS011;12542;50.924;4.516;2022-11-22T06:56:01;17.42;;;2.60;;
24407;SDS011;12542;50.924;4.516;2022-11-22T06:58:29;7.57;;;2.55;;
24407;SDS011;12542;50.924;4.516;2022-11-22T07:01:15;7.15;;;2.17;;
24407;SDS011;12542;50.924;4.516;2022-11-22T07:03:45;6.55;;;1.77;;
24407;SDS011;12542;50.924;4.516;2022-11-22T07:06:13;9.15;;;2.08;;
24407;SDS011;12542;50.924;4.516;2022-11-22T07:08:40;10.35;;;2.92;;
24407;SDS011;12542;50.924;4.516;2022-11-22T07:13:34;8.95;;;1.90;;
24407;SDS011;12542;50.924;4.516;2022-11-22T07:16:02;7.95;;;2.05;;
24407;SDS011;12542;50.924;4.516;2022-11-22T07:18:29;4.65;;;1.63;;
24407;SDS011;12542;50.924;4.516;2022-11-22T07:20:59;5.75;;;1.67;;
24407;SDS011;12542;50.924;4.516;2022-11-22T07:23:26;5.40;;;1.60;;
24407;SDS011;12542;50.924;4.516;2022-11-22T07:25:55;6.32;;;1.85;;
24407;SDS011;12542;50.924;4.516;2022-11-22T07:28:21;7.53;;;2.22;;
24407;SDS011;12542;50.924;4.516;2022-11-22T07:30:47;7.22;;;1.70;;
24407;SDS011;12542;50.924;4.516;2022-11-22T07:33:13;11.23;;;2.35;;
24407;SDS011;12542;50.924;4.516;2022-11-22T07:35:38;5.88;;;1.73;;
24407;SDS011;12542;50.924;4.516;2022-11-22T14:31:22;3.53;;;0.95;;
24407;SDS011;12542;50.924;4.516;2022-11-22T14:36:41;4.40;;;1.00;;
24407;SDS011;12542;50.924;4.516;2022-11-22T14:50:17;3.45;;;0.85;;
24407;SDS011;12542;50.924;4.516;2022-11-22T14:52:46;9.00;;;0.90;;
24407;SDS011;12542;50.924;4.516;2022-11-22T14:55:31;5.80;;;0.95;;
24407;SDS011;12542;50.924;4.516;2022-11-22T14:58:04;2.38;;;0.68;;
24407;SDS011;12542;50.924;4.516;2022-11-22T15:17:39;4.25;;;1.13;;
24407;SDS011;12542;50.924;4.516;2022-11-22T15:23:24;3.85;;;0.95;;
24407;SDS011;12542;50.924;4.516;2022-11-22T15:25:58;3.45;;;0.88;;
24407;SDS011;12542;50.924;4.516;2022-11-22T15:28:25;5.20;;;0.82;;
24407;SDS011;12542;50.924;4.516;2022-11-22T15:30:52;2.80;;;0.95;;
24407;SDS011;12542;50.924;4.516;2022-11-22T15:38:45;4.50;;;0.88;;
24407;SDS011;12542;50.924;4.516;2022-11-22T15:43:41;5.85;;;1.50;;
24407;SDS011;12542;50.924;4.516;2022-11-22T15:46:07;9.95;;;1.92;;
24407;SDS011;12542;50.924;4.516;2022-11-22T15:48:34;4.45;;;1.30;;
24407;SDS011;12542;50.924;4.516;2022-11-22T15:53:39;4.45;;;1.10;;
24407;SDS011;12542;50.924;4.516;2022-11-22T16:01:55;4.95;;;1.30;;
24407;SDS011;12542;50.924;4.516;2022-11-22T16:04:28;8.15;;;1.52;;
24407;SDS011;12542;50.924;4.516;2022-11-22T16:06:57;8.63;;;1.75;;
24407;SDS011;12542;50.924;4.516;2022-11-22T16:09:27;8.70;;;1.77;;
24407;SDS011;12542;50.924;4.516;2022-11-22T16:12:05;8.23;;;1.83;;
24407;SDS011;12542;50.924;4.516;2022-11-22T16:14:48;10.85;;;2.15;;
24407;SDS011;12542;50.924;4.516;2022-11-22T16:17:21;10.27;;;2.00;;
24407;SDS011;12542;50.924;4.516;2022-11-22T16:25:35;13.93;;;3.00;;
24407;SDS011;12542;50.924;4.516;2022-11-22T16:30:49;7.68;;;2.33;;
24407;SDS011;12542;50.924;4.516;2022-11-22T16:33:18;10.43;;;2.33;;
24407;SDS011;12542;50.924;4.516;2022-11-22T16:35:44;9.10;;;2.22;;
24407;SDS011;12542;50.924;4.516;2022-11-22T16:38:10;10.73;;;2.10;;
24407;SDS011;12542;50.924;4.516;2022-11-22T16:40:39;17.10;;;2.42;;
24407;SDS011;12542;50.924;4.516;2022-11-22T16:43:19;9.82;;;1.90;;
24407;SDS011;12542;50.924;4.516;2022-11-22T16:45:47;11.68;;;2.53;;
24407;SDS011;12542;50.924;4.516;2022-11-22T16:48:21;11.27;;;1.98;;
24407;SDS011;12542;50.924;4.516;2022-11-22T16:50:54;24.50;;;3.37;;
24407;SDS011;12542;50.924;4.516;2022-11-22T16:53:22;11.75;;;2.60;;
24407;SDS011;12542;50.924;4.516;2022-11-22T16:55:48;12.15;;;2.25;;
24407;SDS011;12542;50.924;4.516;2022-11-22T16:58:18;16.27;;;2.10;;
24407;SDS011;12542;50.924;4.516;2022-11-22T17:00:46;13.55;;;2.53;;
24407;SDS011;12542;50.924;4.516;2022-11-22T17:03:14;13.20;;;2.30;;
24407;SDS011;12542;50.924;4.516;2022-11-22T17:05:45;12.48;;;2.00;;
24407;SDS011;12542;50.924;4.516;2022-11-22T17:08:12;11.55;;;2.20;;
24407;SDS011;12542;50.924;4.516;2022-11-22T17:10:42;12.20;;;2.67;;
24407;SDS011;12542;50.924;4.516;2022-11-22T17:13:22;10.52;;;2.60;;
24407;SDS011;12542;50.924;4.516;2022-11-22T17:15:50;18.47;;;3.23;;
24407;SDS011;12542;50.924;4.516;2022-11-22T17:18:16;21.35;;;3.10;;
24407;SDS011;12542;50.924;4.516;2022-11-22T17:20:42;8.55;;;1.67;;
24407;SDS011;12542;50.924;4.516;2022-11-22T17:23:10;11.82;;;2.20;;
24407;SDS011;12542;50.924;4.516;2022-11-22T17:25:49;14.43;;;2.50;;
24407;SDS011;12542;50.924;4.516;2022-11-22T17:28:15;10.43;;;2.42;;
24407;SDS011;12542;50.924;4.516;2022-11-22T17:30:41;11.20;;;2.30;;
24407;SDS011;12542;50.924;4.516;2022-11-22T17:33:07;8.43;;;2.20;;
24407;SDS011;12542;50.924;4.516;2022-11-22T17:35:34;15.60;;;2.45;;
24407;SDS011;12542;50.924;4.516;2022-11-22T17:38:01;13.15;;;2.00;;
24407;SDS011;12542;50.924;4.516;2022-11-22T17:40:37;13.68;;;2.00;;
24407;SDS011;12542;50.924;4.516;2022-11-22T17:43:02;15.52;;;2.70;;
24407;SDS011;12542;50.924;4.516;2022-11-22T17:45:28;14.48;;;2.97;;
24407;SDS011;12542;50.924;4.516;2022-11-22T17:47:54;11.35;;;2.15;;
24407;SDS011;12542;50.924;4.516;2022-11-22T17:50:20;10.02;;;2.30;;
24407;SDS011;12542;50.924;4.516;2022-11-22T17:52:46;11.85;;;1.98;;
24407;SDS011;12542;50.924;4.516;2022-11-22T17:55:12;9.63;;;1.95;;
24407;SDS011;12542;50.924;4.516;2022-11-22T17:57:38;7.05;;;2.33;;
24407;SDS011;12542;50.924;4.516;2022-11-22T18:00:05;11.88;;;2.95;;
24407;SDS011;12542;50.924;4.516;2022-11-22T18:02:32;9.00;;;1.98;;
24407;SDS011;12542;50.924;4.516;2022-11-22T18:05:00;8.25;;;1.80;;
24407;SDS011;12542;50.924;4.516;2022-11-22T18:07:29;8.40;;;2.33;;
24407;SDS011;12542;50.924;4.516;2022-11-22T18:09:55;15.45;;;2.70;;
24407;SDS011;12542;50.924;4.516;2022-11-22T18:12:21;15.52;;;2.47;;
24407;SDS011;12542;50.924;4.516;2022-11-22T18:14:47;8.07;;;2.50;;
24407;SDS011;12542;50.924;4.516;2022-11-22T18:17:13;16.17;;;4.93;;
24407;SDS011;12542;50.924;4.516;2022-11-22T18:19:41;15.10;;;2.60;;
24407;SDS011;12542;50.924;4.516;2022-11-22T18:22:07;16.02;;;3.45;;
24407;SDS011;12542;50.924;4.516;2022-11-22T18:24:33;12.98;;;2.90;;
24407;SDS011;12542;50.924;4.516;2022-11-22T18:27:00;11.50;;;2.65;;
24407;SDS011;12542;50.924;4.516;2022-11-22T18:29:25;16.40;;;2.47;;
24407;SDS011;12542;50.924;4.516;2022-11-22T18:31:52;13.88;;;3.45;;
24407;SDS011;12542;50.924;4.516;2022-11-22T18:34:17;17.02;;;3.15;;
24407;SDS011;12542;50.924;4.516;2022-11-22T18:36:43;19.15;;;6.57;;
24407;SDS011;12542;50.924;4.516;2022-11-22T18:39:09;15.57;;;2.92;;
24407;SDS011;12542;50.924;4.516;2022-11-22T18:41:35;10.60;;;2.80;;
24407;SDS011;12542;50.924;4.516;2022-11-22T18:44:01;7.85;;;2.00;;
24407;SDS011;12542;50.924;4.516;2022-11-22T18:46:27;11.00;;;2.15;;
24407;SDS011;12542;50.924;4.516;2022-11-22T18:48:53;9.60;;;2.15;;
24407;SDS011;12542;50.924;4.516;2022-11-22T18:51:19;10.32;;;2.50;;
24407;SDS011;12542;50.924;4.516;2022-11-22T18:53:45;9.23;;;2.67;;
24407;SDS011;12542;50.924;4.516;2022-11-22T18:56:13;14.75;;;3.10;;
24407;SDS011;12542;50.924;4.516;2022-11-22T18:58:41;14.85;;;2.70;;
24407;SDS011;12542;50.924;4.516;2022-11-22T19:01:18;7.25;;;2.30;;
24407;SDS011;12542;50.924;4.516;2022-11-22T19:03:45;11.63;;;3.10;;
24407;SDS011;12542;50.924;4.516;2022-11-22T19:06:13;8.02;;;2.33;;
24407;SDS011;12542;50.924;4.516;2022-11-22T19:08:41;9.68;;;1.77;;
24407;SDS011;12542;50.924;4.516;2022-11-22T19:11:08;11.25;;;3.35;;
24407;SDS011;12542;50.924;4.516;2022-11-22T19:13:36;14.70;;;2.63;;
24407;SDS011;12542;50.924;4.516;2022-11-22T19:16:08;16.52;;;3.92;;
24407;SDS011;12542;50.924;4.516;2022-11-22T19:18:35;18.50;;;5.30;;
24407;SDS011;12542;50.924;4.516;2022-11-22T19:21:06;9.68;;;2.10;;
24407;SDS011;12542;50.924;4.516;2022-11-22T19:23:33;12.43;;;2.95;;
24407;SDS011;12542;50.924;4.516;2022-11-22T19:26:00;8.05;;;2.20;;
24407;SDS011;12542;50.924;4.516;2022-11-22T19:28:30;7.68;;;2.28;;
24407;SDS011;12542;50.924;4.516;2022-11-22T19:31:02;9.60;;;1.63;;
24407;SDS011;12542;50.924;4.516;2022-11-22T19:33:30;11.70;;;2.30;;
24407;SDS011;12542;50.924;4.516;2022-11-22T19:35:57;9.50;;;2.50;;
24407;SDS011;12542;50.924;4.516;2022-11-22T19:38:25;8.73;;;2.20;;
24407;SDS011;12542;50.924;4.516;2022-11-22T19:40:51;16.60;;;2.63;;
24407;SDS011;12542;50.924;4.516;2022-11-22T19:43:18;12.30;;;2.33;;
24407;SDS011;12542;50.924;4.516;2022-11-22T19:45:44;10.27;;;2.42;;
24407;SDS011;12542;50.924;4.516;2022-11-22T19:48:11;9.25;;;2.45;;
24407;SDS011;12542;50.924;4.516;2022-11-22T19:50:38;9.30;;;2.33;;
24407;SDS011;12542;50.924;4.516;2022-11-22T19:53:05;12.40;;;2.65;;
24407;SDS011;12542;50.924;4.516;2022-11-22T19:55:35;8.70;;;2.10;;
24407;SDS011;12542;50.924;4.516;2022-11-22T19:58:01;11.75;;;3.20;;
24407;SDS011;12542;50.924;4.516;2022-11-22T20:00:27;16.40;;;6.03;;
24407;SDS011;12542;50.924;4.516;2022-11-22T20:02:53;15.45;;;5.78;;
24407;SDS011;12542;50.924;4.516;2022-11-22T20:05:19;16.92;;;5.30;;
24407;SDS011;12542;50.924;4.516;2022-11-22T20:07:45;10.38;;;3.92;;
24407;SDS011;12542;50.924;4.516;2022-11-22T20:10:10;13.98;;;3.30;;
24407;SDS011;12542;50.924;4.516;2022-11-22T20:12:36;15.60;;;3.20;;
24407;SDS011;12542;50.924;4.516;2022-11-22T20:15:02;14.73;;;2.42;;
24407;SDS011;12542;50.924;4.516;2022-11-22T20:17:28;10.95;;;2.38;;
24407;SDS011;12542;50.924;4.516;2022-11-22T20:19:55;9.43;;;2.50;;
24407;SDS011;12542;50.924;4.516;2022-11-22T20:22:20;13.60;;;2.67;;
24407;SDS011;12542;50.924;4.516;2022-11-22T20:24:46;14.27;;;2.75;;
24407;SDS011;12542;50.924;4.516;2022-11-22T20:27:13;11.20;;;2.58;;
24407;SDS011;12542;50.924;4.516;2022-11-22T20:29:40;11.02;;;2.55;;
24407;SDS011;12542;50.924;4.516;2022-11-22T20:32:06;8.93;;;2.22;;
24407;SDS011;12542;50.924;4.516;2022-11-22T20:34:32;9.75;;;2.40;;
24407;SDS011;12542;50.924;4.516;2022-11-22T20:36:59;40.47;;;13.18;;
24407;SDS011;12542;50.924;4.516;2022-11-22T20:39:27;31.73;;;10.73;;
24407;SDS011;12542;50.924;4.516;2022-11-22T20:41:54;19.50;;;9.07;;
24407;SDS011;12542;50.924;4.516;2022-11-22T20:44:20;13.57;;;4.00;;
24407;SDS011;12542;50.924;4.516;2022-11-22T20:46:46;15.00;;;2.92;;
24407;SDS011;12542;50.924;4.516;2022-11-22T20:49:11;13.02;;;2.97;;
24407;SDS011;12542;50.924;4.516;2022-11-22T20:51:37;11.18;;;2.88;;
24407;SDS011;12542;50.924;4.516;2022-11-22T20:54:04;15.00;;;2.85;;
24407;SDS011;12542;50.924;4.516;2022-11-22T20:56:31;15.23;;;3.22;;
24407;SDS011;12542;50.924;4.516;2022-11-22T20:58:57;11.80;;;3.35;;
24407;SDS011;12542;50.924;4.516;2022-11-22T21:01:24;13.13;;;3.33;;
24407;SDS011;12542;50.924;4.516;2022-11-22T21:03:51;12.88;;;3.45;;
24407;SDS011;12542;50.924;4.516;2022-11-22T21:06:21;10.55;;;3.13;;
24407;SDS011;12542;50.924;4.516;2022-11-22T21:08:48;12.27;;;2.63;;
24407;SDS011;12542;50.924;4.516;2022-11-22T21:11:16;20.45;;;3.47;;
24407;SDS011;12542;50.924;4.516;2022-11-22T21:13:44;15.07;;;4.03;;
24407;SDS011;12542;50.924;4.516;2022-11-22T21:16:11;11.85;;;2.50;;
24407;SDS011;12542;50.924;4.516;2022-11-22T21:18:39;15.05;;;3.17;;
24407;SDS011;12542;50.924;4.516;2022-11-22T21:21:09;12.35;;;3.97;;
24407;SDS011;12542;50.924;4.516;2022-11-22T21:23:36;8.00;;;3.40;;
24407;SDS011;12542;50.924;4.516;2022-11-22T21:26:03;9.80;;;3.03;;
24407;SDS011;12542;50.924;4.516;2022-11-22T21:28:34;18.88;;;3.30;;
24407;SDS011;12542;50.924;4.516;2022-11-22T21:31:00;16.17;;;3.15;;
24407;SDS011;12542;50.924;4.516;2022-11-22T21:33:28;11.95;;;2.30;;
24407;SDS011;12542;50.924;4.516;2022-11-22T21:35:56;8.23;;;2.30;;
24407;SDS011;12542;50.924;4.516;2022-11-22T21:38:23;16.83;;;2.33;;
24407;SDS011;12542;50.924;4.516;2022-11-22T21:40:50;14.32;;;2.17;;
24407;SDS011;12542;50.924;4.516;2022-11-22T21:43:17;13.32;;;2.22;;
24407;SDS011;12542;50.924;4.516;2022-11-22T21:45:43;10.88;;;2.55;;
24407;SDS011;12542;50.924;4.516;2022-11-22T21:48:09;12.02;;;2.13;;
24407;SDS011;12542;50.924;4.516;2022-11-22T21:50:36;15.20;;;2.63;;
24407;SDS011;12542;50.924;4.516;2022-11-22T21:53:03;6.40;;;1.73;;
24407;SDS011;12542;50.924;4.516;2022-11-22T21:55:28;8.35;;;2.15;;
24407;SDS011;12542;50.924;4.516;2022-11-22T21:57:54;13.32;;;2.28;;
24407;SDS011;12542;50.924;4.516;2022-11-22T22:00:21;10.23;;;2.05;;
24407;SDS011;12542;50.924;4.516;2022-11-22T22:02:47;8.60;;;2.03;;
24407;SDS011;12542;50.924;4.516;2022-11-22T22:05:13;15.60;;;2.55;;
24407;SDS011;12542;50.924;4.516;2022-11-22T22:07:40;6.97;;;1.77;;
24407;SDS011;12542;50.924;4.516;2022-11-22T22:10:06;8.52;;;1.83;;
24407;SDS011;12542;50.924;4.516;2022-11-22T22:12:32;13.23;;;3.15;;
24407;SDS011;12542;50.924;4.516;2022-11-22T22:14:58;19.95;;;2.80;;
24407;SDS011;12542;50.924;4.516;2022-11-22T22:17:23;10.02;;;1.80;;
24407;SDS011;12542;50.924;4.516;2022-11-22T22:19:51;14.57;;;1.90;;
24407;SDS011;12542;50.924;4.516;2022-11-22T22:22:17;14.20;;;2.10;;
24407;SDS011;12542;50.924;4.516;2022-11-22T22:24:43;22.88;;;2.20;;
24407;SDS011;12542;50.924;4.516;2022-11-22T22:27:08;13.77;;;2.45;;
24407;SDS011;12542;50.924;4.516;2022-11-22T22:29:35;11.88;;;1.85;;
24407;SDS011;12542;50.924;4.516;2022-11-22T22:32:00;10.00;;;1.73;;
24407;SDS011;12542;50.924;4.516;2022-11-22T22:34:26;10.05;;;2.05;;
24407;SDS011;12542;50.924;4.516;2022-11-22T22:36:52;9.25;;;1.70;;
24407;SDS011;12542;50.924;4.516;2022-11-22T22:39:18;10.98;;;1.88;;
24407;SDS011;12542;50.924;4.516;2022-11-22T22:41:44;7.63;;;1.83;;
24407;SDS011;12542;50.924;4.516;2022-11-22T22:44:10;11.63;;;1.80;;
24407;SDS011;12542;50.924;4.516;2022-11-22T22:46:35;14.02;;;2.20;;
24407;SDS011;12542;50.924;4.516;2022-11-22T22:49:01;9.05;;;1.77;;